Time;durP1;ratioP1;P1;durP2;ratioP2;P2;SDS_P1;SDS_P2;PMS_P1;PMS_P2;Temp;Humidity;BMP_temperature;BMP_pressure;BME280_temperature;BME280_humidity;BME280_pressure;Samples;Min_cycle;Max_cycle;Signal;HPM_P1;HPM_P2
2022/07/17 00:00:17;;;;;;;5.40;1.80;;;14.10;99.90;;;;;;4956651;29;20233;-62
2022/07/17 00:02:44;;;;;;;3.83;1.77;;;14.00;99.90;;;;;;4956106;29;20236;-62
2022/07/17 00:05:10;;;;;;;5.00;2.40;;;14.00;99.90;;;;;;4956703;29;20216;-61
2022/07/17 00:07:37;;;;;;;4.40;1.87;;;13.90;99.90;;;;;;4956145;29;20212;-62
2022/07/17 00:10:04;;;;;;;4.43;1.90;;;13.80;99.90;;;;;;4956336;29;20240;-62
2022/07/17 00:12:31;;;;;;;6.13;1.80;;;13.80;99.90;;;;;;4956160;29;20215;-62
2022/07/17 00:14:59;;;;;;;7.27;2.20;;;13.80;99.90;;;;;;4956265;29;20213;-62
2022/07/17 00:17:26;;;;;;;7.03;2.30;;;13.70;99.90;;;;;;4955794;28;20240;-62
2022/07/17 00:19:52;;;;;;;4.03;2.03;;;13.70;99.90;;;;;;4955863;29;20724;-62
2022/07/17 00:22:20;;;;;;;7.40;2.57;;;13.70;99.90;;;;;;4956151;29;20229;-62
2022/07/17 00:24:47;;;;;;;3.13;2.23;;;13.60;99.90;;;;;;4955778;29;20212;-62
2022/07/17 00:27:15;;;;;;;5.07;2.07;;;13.60;99.90;;;;;;4956361;29;20219;-62
2022/07/17 00:29:42;;;;;;;5.83;2.60;;;13.50;99.90;;;;;;4956295;29;20235;-61
2022/07/17 00:32:09;;;;;;;5.80;2.13;;;13.50;99.90;;;;;;4956021;29;20217;-62
2022/07/17 00:34:36;;;;;;;6.87;2.57;;;13.40;99.90;;;;;;4956105;29;20212;-62
2022/07/17 00:37:03;;;;;;;7.20;2.47;;;13.40;99.90;;;;;;4955444;29;20206;-62
2022/07/17 00:39:31;;;;;;;4.67;2.20;;;13.30;99.90;;;;;;4956121;29;20231;-62
2022/07/17 00:41:57;;;;;;;5.47;2.13;;;13.30;99.90;;;;;;4955552;29;20229;-62
2022/07/17 00:44:27;;;;;;;7.20;2.07;;;13.30;99.90;;;;;;4955713;29;20214;-62
2022/07/17 00:46:54;;;;;;;3.70;2.17;;;13.20;99.90;;;;;;4955380;29;20215;-62
2022/07/17 00:49:22;;;;;;;6.27;2.10;;;13.20;99.90;;;;;;4955543;28;20230;-62
2022/07/17 00:51:48;;;;;;;4.90;2.33;;;13.10;99.90;;;;;;4954757;29;20210;-62
2022/07/17 00:54:18;;;;;;;3.97;2.40;;;13.10;99.90;;;;;;4955533;29;20214;-62
2022/07/17 00:56:47;;;;;;;4.60;2.50;;;13.10;99.90;;;;;;4955329;29;20209;-62
2022/07/17 00:59:16;;;;;;;4.70;2.70;;;13.10;99.90;;;;;;4955234;28;20237;-62
2022/07/17 01:01:43;;;;;;;4.77;2.67;;;13.10;99.90;;;;;;4955285;28;20355;-62
2022/07/17 01:04:09;;;;;;;3.83;2.10;;;13.00;99.90;;;;;;4955517;29;20221;-62
2022/07/17 01:06:37;;;;;;;5.10;2.27;;;13.00;99.90;;;;;;4955385;28;20242;-62
2022/07/17 01:09:04;;;;;;;6.10;2.10;;;13.00;99.90;;;;;;4955343;29;20229;-62
2022/07/17 01:11:32;;;;;;;5.97;2.40;;;13.00;99.90;;;;;;4955431;29;20209;-62
2022/07/17 01:13:58;;;;;;;4.13;1.80;;;12.90;99.90;;;;;;4955494;29;20211;-62
2022/07/17 01:16:25;;;;;;;7.70;2.20;;;12.80;99.90;;;;;;4955025;29;20703;-62
2022/07/17 01:18:53;;;;;;;5.77;2.20;;;12.80;99.90;;;;;;4955536;29;20240;-62
2022/07/17 01:21:21;;;;;;;4.80;2.07;;;12.80;99.90;;;;;;4955277;29;20584;-62
2022/07/17 01:23:48;;;;;;;4.40;2.40;;;12.70;99.90;;;;;;4955154;29;20252;-62
2022/07/17 01:26:15;;;;;;;4.40;2.07;;;12.70;99.90;;;;;;4954214;29;20215;-62
2022/07/17 01:28:42;;;;;;;4.27;2.03;;;12.60;99.90;;;;;;4955565;29;20321;-62
2022/07/17 01:31:08;;;;;;;3.97;2.03;;;12.60;1.00;;;;;;4955347;29;20213;-61
2022/07/17 01:33:35;;;;;;;4.00;2.13;;;12.60;1.00;;;;;;4954817;29;20202;-62
2022/07/17 01:36:02;;;;;;;3.90;1.87;;;12.60;1.00;;;;;;4954477;29;20606;-62
2022/07/17 01:38:30;;;;;;;9.77;2.10;;;12.50;1.00;;;;;;4954520;29;20233;-62
2022/07/17 01:40:56;;;;;;;2.83;1.90;;;12.50;1.00;;;;;;4955182;29;20217;-62
2022/07/17 01:43:23;;;;;;;5.27;2.07;;;12.50;1.00;;;;;;4955108;29;20715;-62
2022/07/17 01:45:50;;;;;;;4.40;2.17;;;12.50;20.30;;;;;;4954736;29;20214;-62
2022/07/17 01:48:25;;;;;;;6.30;2.30;;;12.50;99.90;;;;;;4954266;29;20653;-62
2022/07/17 01:50:51;;;;;;;5.93;2.27;;;12.40;99.90;;;;;;4954407;29;20216;-62
2022/07/17 01:53:18;;;;;;;4.23;2.50;;;12.40;99.90;;;;;;4954467;28;20233;-62
2022/07/17 01:55:46;;;;;;;2.97;2.20;;;12.30;99.90;;;;;;4954621;29;20217;-61
2022/07/17 01:58:13;;;;;;;4.93;2.10;;;12.30;1.00;;;;;;4954479;29;20209;-61
2022/07/17 02:00:40;;;;;;;8.27;2.30;;;12.20;99.90;;;;;;4954633;29;20210;-62
2022/07/17 02:03:07;;;;;;;4.67;2.33;;;12.20;1.00;;;;;;4953254;28;20233;-62
2022/07/17 02:05:34;;;;;;;9.03;3.00;;;12.20;99.90;;;;;;4954130;29;20205;-63
2022/07/17 02:08:01;;;;;;;3.17;2.20;;;12.10;99.90;;;;;;4954025;29;20732;-62
2022/07/17 02:10:28;;;;;;;4.13;2.10;;;12.10;1.00;;;;;;4954585;29;20217;-62
2022/07/17 02:12:57;;;;;;;9.67;2.93;;;12.10;1.00;;;;;;4954043;29;20209;-61
2022/07/17 02:15:24;;;;;;;5.30;2.77;;;12.10;99.90;;;;;;4953990;29;20217;-62
2022/07/17 02:17:51;;;;;;;5.47;2.70;;;12.00;99.90;;;;;;4953734;29;20209;-62
2022/07/17 02:20:18;;;;;;;6.83;2.67;;;12.00;48.30;;;;;;4953861;29;20291;-62
2022/07/17 02:22:45;;;;;;;8.87;2.50;;;11.90;1.00;;;;;;4953971;29;20232;-62
2022/07/17 02:25:13;;;;;;;6.20;2.47;;;11.90;1.00;;;;;;4954264;29;20209;-62
2022/07/17 02:27:41;;;;;;;6.37;2.80;;;11.90;9.20;;;;;;4953608;29;20217;-62
2022/07/17 02:30:12;;;;;;;7.17;3.10;;;11.90;99.90;;;;;;4953766;29;20242;-62
2022/07/17 02:32:39;;;;;;;4.67;2.30;;;11.80;2.40;;;;;;4954009;28;20224;-62
2022/07/17 02:35:07;;;;;;;3.70;2.30;;;11.90;99.90;;;;;;4953460;29;20212;-62
2022/07/17 02:37:34;;;;;;;6.80;2.23;;;11.80;1.00;;;;;;4953701;28;20219;-62
2022/07/17 02:40:01;;;;;;;4.67;2.50;;;11.80;10.10;;;;;;4953647;29;20232;-62
2022/07/17 02:42:29;;;;;;;5.33;2.70;;;11.80;99.90;;;;;;4953803;29;20229;-62
2022/07/17 02:44:56;;;;;;;6.87;3.07;;;11.80;99.90;;;;;;4953811;29;20212;-62
2022/07/17 02:47:28;;;;;;;6.43;2.37;;;11.80;99.90;;;;;;4953212;29;20212;-62
2022/07/17 02:49:55;;;;;;;5.87;2.30;;;11.80;99.90;;;;;;4953834;29;20232;-62
2022/07/17 02:52:22;;;;;;;4.77;2.63;;;11.70;99.90;;;;;;4953862;29;20205;-61
2022/07/17 02:54:49;;;;;;;5.30;2.60;;;11.70;99.90;;;;;;4953716;28;20705;-61
2022/07/17 02:57:18;;;;;;;9.77;2.77;;;11.70;1.00;;;;;;4953305;29;20228;-62
2022/07/17 02:59:44;;;;;;;4.43;2.30;;;11.60;1.00;;;;;;4953553;29;20236;-61
2022/07/17 03:02:11;;;;;;;5.60;2.40;;;11.60;1.00;;;;;;4953478;29;20213;-61
2022/07/17 03:04:39;;;;;;;3.53;2.30;;;11.60;1.00;;;;;;4953450;29;20212;-62
2022/07/17 03:07:06;;;;;;;7.20;2.90;;;11.60;1.00;;;;;;4953245;29;20213;-62
2022/07/17 03:09:33;;;;;;;3.93;2.03;;;11.60;1.00;;;;;;4953594;29;20233;-62
2022/07/17 03:12:00;;;;;;;6.73;2.47;;;11.60;1.00;;;;;;4953526;29;20216;-62
2022/07/17 03:14:26;;;;;;;5.23;2.80;;;11.60;1.00;;;;;;4956261;28;20213;-62
2022/07/17 03:16:53;;;;;;;5.40;2.30;;;11.60;1.00;;;;;;4957144;29;20264;-62
2022/07/17 03:19:20;;;;;;;4.07;2.27;;;11.50;1.00;;;;;;4957245;29;20266;-62
2022/07/17 03:21:48;;;;;;;5.43;2.97;;;11.50;1.00;;;;;;4957043;29;20719;-62
2022/07/17 03:24:14;;;;;;;10.10;2.83;;;11.50;1.00;;;;;;4957006;29;20410;-62
2022/07/17 03:26:41;;;;;;;7.07;2.70;;;11.50;1.00;;;;;;4956534;29;20223;-62
2022/07/17 03:29:08;;;;;;;6.53;2.53;;;11.40;1.00;;;;;;4956901;29;20240;-62
2022/07/17 03:31:34;;;;;;;12.53;2.90;;;11.40;1.00;;;;;;4957206;29;20586;-62
2022/07/17 03:34:01;;;;;;;6.80;2.73;;;11.50;1.00;;;;;;4957001;29;20676;-62
2022/07/17 03:36:28;;;;;;;4.50;2.37;;;11.40;1.00;;;;;;4956874;29;20220;-62
2022/07/17 03:38:56;;;;;;;3.70;2.50;;;11.40;1.00;;;;;;4956815;29;20236;-62
2022/07/17 03:41:22;;;;;;;7.07;2.83;;;11.40;1.00;;;;;;4956919;29;20715;-62
2022/07/17 03:43:49;;;;;;;5.57;2.90;;;11.40;1.00;;;;;;4956544;29;20232;-62
2022/07/17 03:46:15;;;;;;;6.83;2.70;;;11.40;1.00;;;;;;4956757;29;20217;-62
2022/07/17 03:48:42;;;;;;;5.87;2.47;;;11.40;1.00;;;;;;4956653;29;20232;-62
2022/07/17 03:51:09;;;;;;;5.60;2.60;;;11.40;1.00;;;;;;4956798;29;20213;-62
2022/07/17 03:53:36;;;;;;;3.80;2.67;;;11.40;1.00;;;;;;4956705;29;20606;-62
2022/07/17 03:56:05;;;;;;;7.27;2.77;;;11.40;1.00;;;;;;4956130;29;20213;-62
2022/07/17 03:58:33;;;;;;;4.23;2.73;;;11.40;1.00;;;;;;4956851;29;20308;-61
2022/07/17 04:01:00;;;;;;;3.87;2.50;;;11.40;1.00;;;;;;4956522;29;20209;-62
2022/07/17 04:03:27;;;;;;;5.00;2.63;;;11.40;1.00;;;;;;4956815;29;20242;-62
2022/07/17 04:05:54;;;;;;;6.17;3.00;;;11.40;1.00;;;;;;4955910;29;20212;-62
2022/07/17 04:08:21;;;;;;;5.40;2.53;;;11.40;1.00;;;;;;4956505;29;20228;-62
2022/07/17 04:10:48;;;;;;;3.63;2.50;;;11.40;1.00;;;;;;4956178;29;20213;-62
2022/07/17 04:13:16;;;;;;;6.97;2.57;;;11.40;1.00;;;;;;4956583;29;20208;-63
2022/07/17 04:15:55;;;;;;;5.13;2.60;;;11.40;1.00;;;;;;4956386;29;20216;-62
2022/07/17 04:18:23;;;;;;;3.73;2.43;;;11.40;1.00;;;;;;4956299;29;20229;-62
2022/07/17 04:20:51;;;;;;;3.83;2.33;;;11.50;1.00;;;;;;4956262;29;20238;-62
2022/07/17 04:23:18;;;;;;;5.83;2.30;;;11.50;1.00;;;;;;4955993;29;20227;-62
2022/07/17 04:25:45;;;;;;;8.00;2.67;;;11.50;1.00;;;;;;4955294;28;20217;-62
2022/07/17 04:28:12;;;;;;;6.20;2.90;;;11.50;1.00;;;;;;4955476;29;20224;-62
2022/07/17 04:30:41;;;;;;;4.07;2.40;;;11.50;1.00;;;;;;4956138;29;20209;-63
2022/07/17 04:33:08;;;;;;;3.97;2.30;;;11.60;1.00;;;;;;4956060;29;20220;-62
2022/07/17 04:35:35;;;;;;;5.43;2.73;;;11.60;1.00;;;;;;4956217;29;20577;-62
2022/07/17 04:38:01;;;;;;;4.03;2.37;;;11.60;1.00;;;;;;4955181;29;20205;-62
2022/07/17 04:40:29;;;;;;;4.83;2.40;;;11.70;1.00;;;;;;4955803;29;20236;-63
2022/07/17 04:42:55;;;;;;;4.97;2.10;;;11.70;1.00;;;;;;4955685;29;20313;-62
2022/07/17 04:45:22;;;;;;;5.23;2.23;;;11.80;1.00;;;;;;4955498;29;20213;-63
2022/07/17 04:47:50;;;;;;;3.43;2.43;;;11.80;1.00;;;;;;4955537;28;20209;-62
2022/07/17 04:50:17;;;;;;;3.30;2.07;;;11.90;1.00;;;;;;4955558;29;20232;-62
2022/07/17 04:52:44;;;;;;;6.10;2.60;;;11.90;1.00;;;;;;4955871;29;20213;-62
2022/07/17 04:55:10;;;;;;;6.60;2.20;;;12.00;1.00;;;;;;4955774;29;20216;-63
2022/07/17 04:57:37;;;;;;;4.90;2.40;;;12.10;1.00;;;;;;4955123;29;20220;-62
2022/07/17 05:00:05;;;;;;;3.90;2.00;;;12.20;1.00;;;;;;4955370;29;20725;-62
2022/07/17 05:02:31;;;;;;;5.90;2.53;;;12.20;1.00;;;;;;4955477;29;20225;-63
2022/07/17 05:04:59;;;;;;;4.30;2.37;;;12.30;1.00;;;;;;4955646;29;20236;-62
2022/07/17 05:07:26;;;;;;;3.93;2.00;;;12.40;1.00;;;;;;4955137;29;20703;-62
2022/07/17 05:09:53;;;;;;;7.77;2.30;;;12.50;1.00;;;;;;4955369;29;20225;-62
2022/07/17 05:12:20;;;;;;;4.40;2.17;;;12.50;1.00;;;;;;4955205;29;20216;-62
2022/07/17 05:14:46;;;;;;;6.23;2.40;;;12.60;1.00;;;;;;4955170;29;20685;-63
2022/07/17 05:17:13;;;;;;;3.43;2.20;;;12.60;1.00;;;;;;4954867;29;20214;-62
2022/07/17 05:19:40;;;;;;;5.23;2.53;;;12.70;1.00;;;;;;4955164;28;20288;-62
2022/07/17 05:22:08;;;;;;;5.47;2.40;;;12.70;1.00;;;;;;4955221;29;20240;-63
2022/07/17 05:24:35;;;;;;;6.60;2.93;;;12.80;1.00;;;;;;4955199;29;20313;-63
2022/07/17 05:27:01;;;;;;;8.00;2.50;;;12.90;1.00;;;;;;4954667;29;20243;-63
2022/07/17 05:29:28;;;;;;;3.77;2.40;;;12.90;1.00;;;;;;4954787;28;20225;-63
2022/07/17 05:31:55;;;;;;;6.37;2.70;;;13.00;1.00;;;;;;4954777;28;20209;-62
2022/07/17 05:34:22;;;;;;;5.43;2.63;;;13.00;1.00;;;;;;4955118;29;20202;-62
2022/07/17 05:36:49;;;;;;;5.20;2.30;;;13.10;1.00;;;;;;4954233;28;20215;-62
2022/07/17 05:39:17;;;;;;;4.97;2.53;;;13.20;1.00;;;;;;4954961;29;20264;-62
2022/07/17 05:41:43;;;;;;;5.13;2.30;;;13.20;1.00;;;;;;4954650;29;20210;-62
2022/07/17 05:44:10;;;;;;;4.13;2.33;;;13.30;1.00;;;;;;4954578;29;20230;-62
2022/07/17 05:46:37;;;;;;;6.17;2.40;;;13.30;1.00;;;;;;4953927;29;20214;-62
2022/07/17 05:49:03;;;;;;;6.53;3.13;;;13.40;99.90;;;;;;4954589;29;20241;-62
2022/07/17 05:51:30;;;;;;;5.93;2.33;;;13.50;99.90;;;;;;4954659;29;20211;-62
2022/07/17 05:53:57;;;;;;;6.33;2.20;;;13.60;99.90;;;;;;4954727;29;20234;-63
2022/07/17 05:56:25;;;;;;;5.37;2.33;;;13.70;99.90;;;;;;4954236;29;20714;-62
2022/07/17 05:58:51;;;;;;;7.40;2.47;;;13.70;94.50;;;;;;4954408;29;20247;-63
2022/07/17 06:01:18;;;;;;;3.90;2.43;;;13.80;1.00;;;;;;4954413;29;20215;-62
2022/07/17 06:03:44;;;;;;;4.93;2.10;;;14.00;99.90;;;;;;4954631;29;20236;-63
2022/07/17 06:06:11;;;;;;;5.67;2.20;;;14.10;99.90;;;;;;4954105;29;20212;-63
2022/07/17 06:08:38;;;;;;;3.07;1.77;;;14.20;1.00;;;;;;4954509;29;20232;-63
2022/07/17 06:11:05;;;;;;;4.53;2.10;;;14.30;99.90;;;;;;4953892;29;20618;-62
2022/07/17 06:13:32;;;;;;;5.63;1.80;;;14.50;99.90;;;;;;4954086;29;20216;-63
2022/07/17 06:15:59;;;;;;;6.23;2.27;;;14.50;99.90;;;;;;4953839;29;20209;-62
2022/07/17 06:18:26;;;;;;;7.67;2.20;;;14.70;14.00;;;;;;4954566;29;20229;-62
2022/07/17 06:20:53;;;;;;;6.17;1.87;;;14.80;1.00;;;;;;4954043;29;20259;-62
2022/07/17 06:23:19;;;;;;;2.07;1.23;;;14.90;1.00;;;;;;4954004;29;20236;-62
2022/07/17 06:25:46;;;;;;;4.53;1.50;;;15.00;1.00;;;;;;4954111;29;20213;-62
2022/07/17 06:28:13;;;;;;;7.50;1.83;;;15.10;99.90;;;;;;4953418;29;20649;-62
2022/07/17 06:30:41;;;;;;;5.53;1.80;;;15.20;99.90;;;;;;4954185;29;20213;-62
2022/07/17 06:33:07;;;;;;;2.43;1.30;;;15.30;99.90;;;;;;4953929;29;20220;-62
2022/07/17 06:35:34;;;;;;;3.27;1.70;;;15.40;99.90;;;;;;4953965;29;20209;-62
2022/07/17 06:38:03;;;;;;;7.53;2.63;;;15.50;99.90;;;;;;4953620;29;20212;-62
2022/07/17 06:40:30;;;;;;;5.60;1.43;;;15.60;99.90;;;;;;4954068;29;20205;-62
2022/07/17 06:42:56;;;;;;;2.80;1.70;;;15.80;99.90;;;;;;4953519;29;20236;-62
2022/07/17 06:45:23;;;;;;;4.53;1.87;;;15.80;99.90;;;;;;4953816;29;20626;-62
2022/07/17 06:47:51;;;;;;;3.73;2.00;;;15.90;99.90;;;;;;4954861;28;20209;-62
2022/07/17 06:50:18;;;;;;;6.13;1.97;;;16.00;99.90;;;;;;4960049;28;20648;-62
2022/07/17 06:52:44;;;;;;;5.07;1.60;;;16.20;99.90;;;;;;4960126;28;20236;-63
2022/07/17 06:55:11;;;;;;;3.23;1.90;;;16.30;99.90;;;;;;4959954;29;20205;-62
2022/07/17 06:57:38;;;;;;;6.30;2.20;;;16.40;99.90;;;;;;4959654;28;20948;-62
2022/07/17 07:00:06;;;;;;;2.67;1.43;;;16.50;99.90;;;;;;4959981;28;20603;-62
2022/07/17 07:02:32;;;;;;;3.70;1.57;;;16.60;99.90;;;;;;4960011;28;20679;-62
2022/07/17 07:05:00;;;;;;;5.20;2.37;;;16.80;99.90;;;;;;4959656;29;20229;-62
2022/07/17 07:07:27;;;;;;;2.63;1.50;;;16.80;99.90;;;;;;4959550;28;20297;-62
2022/07/17 07:09:54;;;;;;;5.17;1.60;;;16.80;99.90;;;;;;4959783;28;20231;-62
2022/07/17 07:12:20;;;;;;;4.27;1.47;;;16.90;99.90;;;;;;4959670;28;20702;-62
2022/07/17 07:14:47;;;;;;;4.13;1.80;;;16.90;99.90;;;;;;4960350;28;20209;-66
2022/07/17 07:17:14;;;;;;;3.80;1.50;;;16.90;99.90;;;;;;4947552;28;20220;-63
2022/07/17 07:19:40;;;;;;;7.20;1.90;;;17.10;99.90;;;;;;4959182;28;20749;-63
2022/07/17 07:22:08;;;;;;;2.87;1.30;;;17.30;99.90;;;;;;4959591;29;20216;-64
2022/07/17 07:24:35;;;;;;;6.97;1.67;;;17.40;99.90;;;;;;4959170;29;20239;-60
2022/07/17 07:27:02;;;;;;;5.63;1.80;;;17.50;99.90;;;;;;4959035;28;20217;-61
2022/07/17 07:29:28;;;;;;;4.00;1.53;;;17.80;99.90;;;;;;4961352;28;20225;-62
2022/07/17 07:31:55;;;;;;;3.90;1.67;;;18.00;99.90;;;;;;4961787;28;20213;-62
2022/07/17 07:34:22;;;;;;;3.47;1.30;;;18.10;99.90;;;;;;4961144;29;20300;-61
2022/07/17 07:36:49;;;;;;;3.40;1.13;;;18.30;99.90;;;;;;4958795;28;20694;-61
2022/07/17 07:39:17;;;;;;;4.23;1.97;;;18.30;99.90;;;;;;4958915;29;20236;-66
2022/07/17 07:41:43;;;;;;;3.33;1.40;;;18.40;99.90;;;;;;4959285;29;20209;-66
2022/07/17 07:44:10;;;;;;;1.97;1.30;;;18.50;99.90;;;;;;4959435;28;20229;-66
2022/07/17 07:46:37;;;;;;;4.33;1.60;;;18.50;99.90;;;;;;4958906;29;20216;-64
2022/07/17 07:49:03;;;;;;;4.60;1.23;;;18.60;99.90;;;;;;4959051;29;20229;-66
2022/07/17 07:51:30;;;;;;;4.13;1.47;;;18.70;99.90;;;;;;4959067;28;20208;-66
2022/07/17 07:53:57;;;;;;;4.67;1.27;;;18.70;99.90;;;;;;4959054;29;20692;-65
2022/07/17 07:56:25;;;;;;;6.37;1.27;;;18.80;99.90;;;;;;4959056;28;20205;-66
2022/07/17 07:58:51;;;;;;;2.77;1.07;;;18.90;99.90;;;;;;4958614;28;20248;-66
2022/07/17 08:01:18;;;;;;;1.93;1.13;;;19.00;99.90;;;;;;4956361;29;20212;-65
2022/07/17 08:03:45;;;;;;;3.30;1.00;;;19.30;99.90;;;;;;4956011;29;20205;-66
2022/07/17 08:06:11;;;;;;;3.30;1.33;;;19.60;99.90;;;;;;4955482;29;20594;-67
2022/07/17 08:08:38;;;;;;;3.13;0.93;;;19.80;99.90;;;;;;4956011;29;20241;-66
2022/07/17 08:11:05;;;;;;;3.90;1.10;;;20.00;99.90;;;;;;4956039;29;20209;-67
2022/07/17 08:13:33;;;;;;;4.43;1.20;;;19.90;99.90;;;;;;4956104;28;20209;-61
2022/07/17 08:16:00;;;;;;;5.50;1.23;;;20.20;99.90;;;;;;4955586;29;20221;-66
2022/07/17 08:18:27;;;;;;;4.07;1.20;;;20.30;99.90;;;;;;4955934;29;20225;-64
2022/07/17 08:20:54;;;;;;;2.37;1.20;;;20.30;99.90;;;;;;4955494;29;20212;-63
2022/07/17 08:23:20;;;;;;;2.70;1.27;;;20.50;99.90;;;;;;4956076;29;20213;-65
2022/07/17 08:25:47;;;;;;;3.20;1.07;;;20.60;99.90;;;;;;4955766;29;20243;-63
2022/07/17 08:28:14;;;;;;;8.87;1.50;;;20.70;99.90;;;;;;4954813;29;20217;-62
2022/07/17 08:30:42;;;;;;;7.30;1.03;;;20.90;99.90;;;;;;4955741;29;20232;-63
2022/07/17 08:33:10;;;;;;;3.53;1.03;;;21.00;99.90;;;;;;4955620;29;20205;-62
2022/07/17 08:35:38;;;;;;;3.27;1.10;;;21.00;99.90;;;;;;4955469;29;20205;-63
2022/07/17 08:38:05;;;;;;;3.90;1.10;;;21.00;99.90;;;;;;4955005;29;20220;-63
2022/07/17 08:40:33;;;;;;;3.50;1.20;;;21.00;99.90;;;;;;4955532;29;20213;-63
2022/07/17 08:43:01;;;;;;;4.17;1.30;;;21.30;99.90;;;;;;4955446;29;20215;-62
2022/07/17 08:45:28;;;;;;;6.73;1.10;;;21.50;99.90;;;;;;4955147;29;20236;-64
2022/07/17 08:47:57;;;;;;;3.00;1.30;;;21.50;99.90;;;;;;4954728;29;20205;-63
2022/07/17 08:50:26;;;;;;;3.90;1.13;;;21.60;99.90;;;;;;4955008;29;20224;-63
2022/07/17 08:52:53;;;;;;;4.60;1.23;;;21.70;99.90;;;;;;4955275;29;20213;-64
2022/07/17 08:55:19;;;;;;;2.23;1.17;;;21.80;99.90;;;;;;4955098;29;20201;-64
2022/07/17 08:57:47;;;;;;;2.83;1.10;;;21.70;99.90;;;;;;4954620;29;20220;-63
2022/07/17 09:00:16;;;;;;;2.57;1.40;;;21.70;99.90;;;;;;4954966;29;20259;-64
2022/07/17 09:02:54;;;;;;;3.57;1.07;;;21.70;99.90;;;;;;4955065;29;20216;-63
2022/07/17 09:05:24;;;;;;;4.70;1.33;;;21.60;99.90;;;;;;4955055;28;20284;-63
2022/07/17 09:07:51;;;;;;;3.90;1.20;;;21.40;99.90;;;;;;4954160;29;20684;-64
2022/07/17 09:10:18;;;;;;;2.53;1.20;;;21.60;99.90;;;;;;4955025;28;20232;-63
2022/07/17 09:12:45;;;;;;;4.27;1.13;;;21.80;99.90;;;;;;4954390;28;20209;-63
2022/07/17 09:15:16;;;;;;;3.07;1.10;;;21.70;99.90;;;;;;4954586;29;20212;-63
2022/07/17 09:17:49;;;;;;;4.33;1.20;;;21.60;99.90;;;;;;4954376;29;20723;-63
2022/07/17 09:20:16;;;;;;;5.03;1.07;;;21.70;99.90;;;;;;4954688;29;20578;-63
2022/07/17 09:22:44;;;;;;;3.93;1.40;;;21.60;99.90;;;;;;4954863;29;20212;-66
2022/07/17 09:25:11;;;;;;;3.83;1.13;;;21.70;99.90;;;;;;4954300;29;20236;-66
2022/07/17 09:27:38;;;;;;;4.53;1.43;;;21.80;99.90;;;;;;4953839;29;20220;-63
2022/07/17 09:30:09;;;;;;;5.77;1.13;;;21.90;99.90;;;;;;4954797;29;20224;-63
2022/07/17 09:32:37;;;;;;;4.13;1.00;;;21.90;99.90;;;;;;4954781;28;20208;-63
2022/07/17 09:35:07;;;;;;;6.23;1.30;;;21.60;99.90;;;;;;4955082;28;20212;-63
2022/07/17 09:37:34;;;;;;;3.87;1.20;;;21.40;99.90;;;;;;4954103;29;20213;-63
2022/07/17 09:40:10;;;;;;;3.73;1.30;;;21.60;99.90;;;;;;4954148;29;20231;-62
2022/07/17 09:42:37;;;;;;;2.83;0.90;;;21.70;99.90;;;;;;4954357;29;20208;-63
2022/07/17 09:45:06;;;;;;;2.47;1.07;;;21.80;99.90;;;;;;4954594;29;20600;-64
2022/07/17 09:47:35;;;;;;;3.20;1.10;;;21.60;99.90;;;;;;4953827;29;20216;-64
2022/07/17 09:50:05;;;;;;;4.50;1.30;;;21.60;99.90;;;;;;4954051;29;20647;-63
2022/07/17 09:52:34;;;;;;;3.47;1.00;;;21.80;99.90;;;;;;4953384;29;20212;-64
2022/07/17 09:55:02;;;;;;;5.43;1.10;;;21.90;99.90;;;;;;4954581;29;20590;-62
2022/07/17 09:57:31;;;;;;;4.57;1.47;;;22.10;99.90;;;;;;4954191;29;20707;-63
2022/07/17 10:00:02;;;;;;;4.40;1.10;;;22.00;99.90;;;;;;4954248;29;20612;-66
2022/07/17 10:02:30;;;;;;;3.97;1.00;;;22.30;99.90;;;;;;4954405;29;20216;-66
2022/07/17 10:04:57;;;;;;;6.03;1.30;;;22.40;99.90;;;;;;4954281;29;20267;-66
2022/07/17 10:07:24;;;;;;;3.50;1.40;;;22.40;99.90;;;;;;4954076;29;20209;-66
2022/07/17 10:09:51;;;;;;;4.07;1.00;;;22.40;99.90;;;;;;4955176;29;20251;-66
2022/07/17 10:12:20;;;;;;;5.67;1.27;;;22.10;99.90;;;;;;4955058;29;20355;-66
2022/07/17 10:14:48;;;;;;;2.17;0.83;;;22.10;99.90;;;;;;4954846;29;20201;-66
2022/07/17 10:17:21;;;;;;;5.90;1.07;;;21.70;99.90;;;;;;4954090;29;20213;-66
2022/07/17 10:19:49;;;;;;;4.30;1.40;;;21.90;99.90;;;;;;4954772;29;20229;-65
2022/07/17 10:22:16;;;;;;;2.63;1.20;;;22.20;99.90;;;;;;4953869;28;20236;-66
2022/07/17 10:24:47;;;;;;;4.70;1.00;;;22.50;99.90;;;;;;4953498;29;20268;-65
2022/07/17 10:27:21;;;;;;;3.93;1.10;;;22.60;99.90;;;;;;4953545;29;20293;-66
2022/07/17 10:29:59;;;;;;;4.73;1.20;;;22.70;99.90;;;;;;4953682;29;20672;-66
2022/07/17 10:32:26;;;;;;;1.90;1.03;;;22.90;99.90;;;;;;4954000;29;20220;-65
2022/07/17 10:34:55;;;;;;;4.60;1.17;;;22.90;99.90;;;;;;4953947;28;20209;-65
2022/07/17 10:37:24;;;;;;;1.50;0.90;;;22.70;99.90;;;;;;4953962;29;20237;-65
2022/07/17 10:40:11;;;;;;;3.97;1.17;;;22.70;99.90;;;;;;4953678;29;20735;-66
2022/07/17 10:42:56;;;;;;;4.67;1.00;;;22.90;99.90;;;;;;4953850;28;20213;-65
2022/07/17 10:45:24;;;;;;;4.57;1.60;;;22.80;99.90;;;;;;4953859;29;20232;-65
2022/07/17 10:47:54;;;;;;;3.27;1.17;;;23.00;99.90;;;;;;4953543;29;20209;-66
2022/07/17 10:50:24;;;;;;;4.97;1.20;;;23.20;99.90;;;;;;4954519;29;20233;-66
2022/07/17 10:53:04;;;;;;;7.37;1.33;;;23.30;99.90;;;;;;4953430;29;20213;-65
2022/07/17 10:55:31;;;;;;;3.80;1.77;;;23.40;99.90;;;;;;4954075;29;20212;-65
2022/07/17 10:57:59;;;;;;;3.13;1.10;;;23.50;99.90;;;;;;4953586;29;20213;-66
2022/07/17 11:00:26;;;;;;;5.23;1.40;;;23.40;99.90;;;;;;4954063;28;20233;-66
2022/07/17 11:02:53;;;;;;;1.93;1.13;;;23.60;99.90;;;;;;4954150;29;20217;-66
2022/07/17 11:05:20;;;;;;;2.00;1.07;;;23.50;99.90;;;;;;4954724;29;20233;-66
2022/07/17 11:07:55;;;;;;;5.97;1.43;;;23.20;99.90;;;;;;4954298;29;20213;-66
2022/07/17 11:10:25;;;;;;;2.93;1.30;;;23.30;99.90;;;;;;4954058;29;20331;-65
2022/07/17 11:12:51;;;;;;;4.20;1.00;;;23.50;99.90;;;;;;4953587;29;20645;-66
2022/07/17 11:15:20;;;;;;;4.27;1.40;;;23.60;99.90;;;;;;4945879;29;20204;-63
2022/07/17 11:17:48;;;;;;;2.80;1.07;;;23.70;99.90;;;;;;4952171;29;20649;-63
2022/07/17 11:20:17;;;;;;;2.47;1.10;;;23.70;99.90;;;;;;4953309;29;20228;-63
2022/07/17 11:22:44;;;;;;;1.93;1.00;;;23.80;99.90;;;;;;4953114;29;20213;-63
2022/07/17 11:25:11;;;;;;;1.50;0.90;;;23.60;99.90;;;;;;4952921;29;20229;-63
2022/07/17 11:27:39;;;;;;;3.60;0.90;;;23.70;99.90;;;;;;4952448;28;20248;-63
2022/07/17 11:30:11;;;;;;;4.50;1.60;;;23.70;99.90;;;;;;4952871;29;20248;-63
2022/07/17 11:32:40;;;;;;;4.37;1.40;;;23.50;99.90;;;;;;4952980;29;20252;-63
2022/07/17 11:35:16;;;;;;;6.07;1.40;;;23.40;99.90;;;;;;4955283;28;20220;-64
2022/07/17 11:37:43;;;;;;;4.17;1.50;;;23.00;99.90;;;;;;4956241;28;20209;-65
2022/07/17 11:40:10;;;;;;;5.73;1.57;;;23.00;99.90;;;;;;4956541;28;20275;-65
2022/07/17 11:42:37;;;;;;;21.20;6.97;;;23.30;99.90;;;;;;4956532;29;20248;-67
2022/07/17 11:45:04;;;;;;;3.77;1.33;;;23.20;99.90;;;;;;4956125;29;20243;-64
2022/07/17 11:47:31;;;;;;;4.77;1.30;;;23.40;99.90;;;;;;4956036;29;20217;-63
2022/07/17 11:50:08;;;;;;;8.73;2.33;;;23.60;99.90;;;;;;4956401;29;20225;-66
2022/07/17 11:52:45;;;;;;;9.90;2.30;;;23.60;99.90;;;;;;4956537;29;20227;-65
2022/07/17 11:55:13;;;;;;;5.33;1.33;;;23.80;99.90;;;;;;4956199;29;20212;-61
2022/07/17 11:57:46;;;;;;;4.43;1.30;;;24.00;99.90;;;;;;4955731;29;20209;-66
2022/07/17 12:00:15;;;;;;;4.00;1.40;;;24.20;99.90;;;;;;4956382;29;20233;-62
2022/07/17 12:02:41;;;;;;;6.33;1.87;;;23.70;99.90;;;;;;4956091;28;20212;-62
2022/07/17 12:05:10;;;;;;;9.70;3.57;;;23.60;99.90;;;;;;4956286;29;20754;-61
2022/07/17 12:07:42;;;;;;;5.17;1.37;;;23.80;99.90;;;;;;4955358;29;20568;-61
2022/07/17 12:10:15;;;;;;;5.70;1.67;;;24.00;99.90;;;;;;4956383;29;20575;-61
2022/07/17 12:12:53;;;;;;;6.07;1.30;;;24.30;99.90;;;;;;4956137;29;20216;-61
2022/07/17 12:15:20;;;;;;;9.57;1.50;;;24.40;99.90;;;;;;4955884;29;20215;-62
2022/07/17 12:17:47;;;;;;;3.77;1.10;;;24.40;99.90;;;;;;4955363;28;20684;-64
2022/07/17 12:20:15;;;;;;;5.50;1.30;;;24.60;99.90;;;;;;4955614;29;20691;-63
2022/07/17 12:22:47;;;;;;;3.53;1.00;;;24.90;99.90;;;;;;4956001;29;20217;-62
2022/07/17 12:25:24;;;;;;;6.30;1.80;;;25.00;99.90;;;;;;4955313;29;20225;-62
2022/07/17 12:27:51;;;;;;;4.07;1.57;;;24.80;99.90;;;;;;4955043;29;20723;-62
2022/07/17 12:30:18;;;;;;;2.77;1.33;;;24.70;99.90;;;;;;4955606;29;20229;-62
2022/07/17 12:32:47;;;;;;;4.03;1.67;;;24.60;99.90;;;;;;4955377;29;20213;-61
2022/07/17 12:35:15;;;;;;;3.73;1.30;;;24.70;99.90;;;;;;4955827;29;20217;-62
2022/07/17 12:37:42;;;;;;;3.53;1.00;;;25.00;99.90;;;;;;4954518;29;20221;-65
2022/07/17 12:40:09;;;;;;;1.97;1.20;;;24.90;99.90;;;;;;4955681;29;20236;-64
2022/07/17 12:42:36;;;;;;;4.30;1.20;;;24.70;99.90;;;;;;4955089;29;20209;-62
2022/07/17 12:45:03;;;;;;;4.33;1.17;;;24.80;99.90;;;;;;4955433;29;20667;-62
2022/07/17 12:47:30;;;;;;;5.17;1.83;;;24.80;99.90;;;;;;4953931;28;20205;-61
2022/07/17 12:49:57;;;;;;;5.20;1.63;;;25.00;99.90;;;;;;4955248;29;20339;-61
2022/07/17 12:52:25;;;;;;;2.80;1.20;;;25.20;99.90;;;;;;4955443;29;20208;-61